createdAt,value
2018-10-07T00:00:28.096Z,0
2018-10-07T00:01:37.985Z,0
2018-10-07T00:02:47.767Z,0
2018-10-07T00:03:57.915Z,0
2018-10-07T00:05:08.099Z,0
2018-10-07T00:06:18.497Z,0
2018-10-07T00:07:29.636Z,0
2018-10-07T00:08:39.824Z,0
2018-10-07T00:09:49.966Z,0
2018-10-07T00:11:00.113Z,0
2018-10-07T00:12:10.291Z,0
2018-10-07T00:13:20.424Z,0
2018-10-07T00:14:30.761Z,0
2018-10-07T00:15:40.554Z,0
2018-10-07T00:16:50.736Z,0
2018-10-07T00:18:00.954Z,0
2018-10-07T00:19:11.135Z,0
2018-10-07T00:20:21.331Z,0
2018-10-07T00:21:31.495Z,0
2018-10-07T00:22:41.617Z,0
2018-10-07T00:23:51.751Z,0
2018-10-07T00:25:01.947Z,0
2018-10-07T00:26:11.886Z,0
2018-10-07T00:27:23.125Z,0
2018-10-07T00:28:33.459Z,0
2018-10-07T00:29:44.602Z,0
2018-10-07T00:30:54.836Z,0
2018-10-07T00:32:04.493Z,0
2018-10-07T00:33:14.625Z,0
2018-10-07T00:34:24.756Z,0
2018-10-07T00:35:34.920Z,0
2018-10-07T00:36:45.054Z,0
2018-10-07T00:37:55.229Z,0
2018-10-07T00:39:05.119Z,0
2018-10-07T00:40:15.262Z,0
2018-10-07T00:41:25.494Z,0
2018-10-07T00:42:35.312Z,0
2018-10-07T00:43:45.436Z,0
2018-10-07T00:44:55.083Z,0
2018-10-07T00:46:05.256Z,0
2018-10-07T00:47:15.508Z,0
2018-10-07T00:48:25.850Z,0
2018-10-07T00:49:36.030Z,0
2018-10-07T00:50:45.953Z,0
2018-10-07T00:51:56.107Z,0
2018-10-07T00:53:06.264Z,0
2018-10-07T00:54:16.415Z,0
2018-10-07T00:55:26.614Z,0
2018-10-07T00:56:36.809Z,0
2018-10-07T00:57:46.988Z,0
2018-10-07T00:58:56.919Z,0
2018-10-07T01:00:07.188Z,0
2018-10-07T01:01:17.309Z,0
2018-10-07T01:02:27.553Z,0
2018-10-07T01:03:37.709Z,0
2018-10-07T01:04:47.541Z,0
2018-10-07T01:05:57.708Z,0
2018-10-07T01:07:07.815Z,0
2018-10-07T01:08:17.968Z,0
2018-10-07T01:09:28.113Z,0
2018-10-07T01:10:38.236Z,0
2018-10-07T01:11:48.098Z,0
2018-10-07T01:12:58.247Z,0
2018-10-07T01:14:08.378Z,0
2018-10-07T01:15:18.557Z,0
2018-10-07T01:16:28.111Z,0
2018-10-07T01:17:38.022Z,0
2018-10-07T01:18:48.199Z,0
2018-10-07T01:19:58.348Z,0
2018-10-07T01:21:08.122Z,0
2018-10-07T01:22:18.372Z,0
2018-10-07T01:23:28.509Z,0
2018-10-07T01:24:38.672Z,0
2018-10-07T01:25:48.620Z,0
2018-10-07T01:26:58.799Z,0
2018-10-07T01:28:09.004Z,0
2018-10-07T01:29:19.183Z,0
2018-10-07T01:30:29.360Z,0
2018-10-07T01:31:39.277Z,0
2018-10-07T01:32:49.421Z,0
2018-10-07T01:33:59.573Z,0
2018-10-07T01:35:10.778Z,0
2018-10-07T01:36:20.494Z,0
2018-10-07T01:37:30.376Z,0
2018-10-07T01:38:40.507Z,0
2018-10-07T01:39:50.637Z,0
2018-10-07T01:41:00.853Z,0
2018-10-07T01:42:11.059Z,0
2018-10-07T01:43:21.275Z,0
2018-10-07T01:44:31.159Z,0
2018-10-07T01:45:41.354Z,0
2018-10-07T01:46:51.513Z,0
2018-10-07T01:48:01.652Z,0
2018-10-07T01:49:11.857Z,0
2018-10-07T01:50:22.037Z,0
2018-10-07T01:51:32.184Z,0
2018-10-07T01:52:42.297Z,0
2018-10-07T01:53:52.435Z,0
2018-10-07T01:55:02.608Z,0
2018-10-07T01:56:12.747Z,0
2018-10-07T01:57:23.039Z,0
2018-10-07T01:58:33.227Z,0
2018-10-07T01:59:43.410Z,0
2018-10-07T02:00:53.265Z,0
2018-10-07T02:02:03.431Z,0
2018-10-07T02:03:13.618Z,0
2018-10-07T02:04:23.769Z,0
2018-10-07T02:05:33.925Z,0
2018-10-07T02:06:44.062Z,0
2018-10-07T02:07:54.248Z,0
2018-10-07T02:09:04.380Z,0
2018-10-07T02:10:14.515Z,0
2018-10-07T02:11:24.392Z,0
2018-10-07T02:12:34.172Z,0
2018-10-07T02:13:44.318Z,0
2018-10-07T02:14:54.484Z,0
2018-10-07T02:16:04.616Z,0
2018-10-07T02:17:14.951Z,0
2018-10-07T02:18:24.823Z,0
2018-10-07T02:19:34.957Z,0
2018-10-07T02:20:45.086Z,0
2018-10-07T02:21:55.233Z,0
2018-10-07T02:23:05.406Z,0
2018-10-07T02:24:15.636Z,0
2018-10-07T02:25:25.883Z,0
2018-10-07T02:26:36.035Z,0
2018-10-07T02:27:46.250Z,0
2018-10-07T02:28:56.414Z,0
2018-10-07T02:30:06.603Z,0
2018-10-07T02:31:16.735Z,0
2018-10-07T02:32:26.758Z,0
2018-10-07T02:33:37.129Z,0
2018-10-07T02:34:47.248Z,0
2018-10-07T02:35:57.509Z,0
2018-10-07T02:37:07.682Z,0
2018-10-07T02:38:17.657Z,0
2018-10-07T02:39:27.790Z,0
2018-10-07T02:40:37.920Z,0
2018-10-07T02:41:48.081Z,0
2018-10-07T02:42:58.212Z,0
2018-10-07T02:44:08.362Z,0
2018-10-07T02:45:18.509Z,0
2018-10-07T02:46:28.621Z,0
2018-10-07T02:47:38.812Z,0
2018-10-07T02:48:48.932Z,0
2018-10-07T02:49:59.132Z,0
2018-10-07T02:51:09.306Z,0
2018-10-07T02:52:19.481Z,0
2018-10-07T02:53:29.915Z,0
2018-10-07T02:54:40.060Z,0
2018-10-07T02:55:50.211Z,0
2018-10-07T02:57:00.365Z,0
2018-10-07T02:58:10.648Z,0
2018-10-07T02:59:20.795Z,0
2018-10-07T03:00:31.059Z,0
2018-10-07T03:01:41.280Z,0
2018-10-07T03:02:51.456Z,0
2018-10-07T03:04:01.735Z,0
2018-10-07T03:05:11.867Z,0
2018-10-07T03:06:21.681Z,0
2018-10-07T03:07:31.908Z,0
2018-10-07T03:08:42.124Z,0
2018-10-07T03:09:52.246Z,0
2018-10-07T03:11:02.410Z,0
2018-10-07T03:12:12.313Z,0
2018-10-07T03:13:22.719Z,0
2018-10-07T03:14:32.851Z,0
2018-10-07T03:15:42.721Z,0
2018-10-07T03:16:52.881Z,0
2018-10-07T03:18:03.020Z,0
2018-10-07T03:19:13.198Z,0
2018-10-07T03:20:23.386Z,0
2018-10-07T03:21:33.614Z,0
2018-10-07T03:22:43.811Z,0
2018-10-07T03:23:53.714Z,0
2018-10-07T03:25:03.579Z,0
2018-10-07T03:26:13.539Z,0
2018-10-07T03:27:23.339Z,0
2018-10-07T03:28:33.484Z,0
2018-10-07T03:29:43.893Z,0
2018-10-07T03:30:54.060Z,0
2018-10-07T03:32:04.203Z,0
2018-10-07T03:33:14.435Z,0
2018-10-07T03:34:24.131Z,0
2018-10-07T03:35:34.253Z,0
2018-10-07T03:36:44.371Z,0
2018-10-07T03:37:54.509Z,0
2018-10-07T03:39:04.411Z,0
2018-10-07T03:40:14.312Z,0
2018-10-07T03:41:24.472Z,0
2018-10-07T03:42:34.701Z,0
2018-10-07T03:43:44.873Z,0
2018-10-07T03:44:55.244Z,0
2018-10-07T03:46:05.401Z,0
2018-10-07T03:47:15.531Z,0
2018-10-07T03:48:25.427Z,0
2018-10-07T03:49:35.561Z,0
2018-10-07T03:50:45.770Z,0
2018-10-07T03:51:55.969Z,0
2018-10-07T03:53:06.107Z,0
2018-10-07T03:54:16.518Z,0
2018-10-07T03:55:26.736Z,0
2018-10-07T03:56:37.007Z,0
2018-10-07T03:57:47.191Z,0
2018-10-07T03:58:57.064Z,0
2018-10-07T04:00:07.192Z,0
2018-10-07T04:01:17.343Z,0
2018-10-07T04:02:27.510Z,0
2018-10-07T04:03:37.380Z,0
2018-10-07T04:04:47.503Z,0
2018-10-07T04:05:57.676Z,0
2018-10-07T04:07:07.900Z,0
2018-10-07T04:08:18.153Z,0
2018-10-07T04:09:28.332Z,0
2018-10-07T04:10:38.622Z,0
2018-10-07T04:11:48.812Z,0
2018-10-07T04:12:59.014Z,0
2018-10-07T04:14:09.520Z,0
2018-10-07T04:15:19.643Z,0
2018-10-07T04:16:29.818Z,0
2018-10-07T04:17:39.971Z,0
2018-10-07T04:18:50.198Z,0
2018-10-07T04:20:00.393Z,0
2018-10-07T04:21:10.712Z,0
2018-10-07T04:22:20.848Z,0
2018-10-07T04:23:30.991Z,0
2018-10-07T04:24:41.282Z,0
2018-10-07T04:25:51.454Z,0
2018-10-07T04:27:01.619Z,0
2018-10-07T04:28:11.929Z,0
2018-10-07T04:29:22.132Z,0
2018-10-07T04:30:32.532Z,0
2018-10-07T04:31:42.690Z,0
2018-10-07T04:32:52.624Z,0
2018-10-07T04:34:02.746Z,0
2018-10-07T04:35:12.624Z,0
2018-10-07T04:36:22.841Z,0
2018-10-07T04:37:32.748Z,0
2018-10-07T04:38:42.714Z,0
2018-10-07T04:39:52.726Z,0
2018-10-07T04:41:02.779Z,0
2018-10-07T04:42:12.917Z,0
2018-10-07T04:43:23.025Z,0
2018-10-07T04:44:33.147Z,0
2018-10-07T04:45:43.371Z,0
2018-10-07T04:46:53.567Z,0
2018-10-07T04:48:03.715Z,0
2018-10-07T04:49:13.849Z,0
2018-10-07T04:50:23.720Z,0
2018-10-07T04:51:33.864Z,0
2018-10-07T04:52:44.019Z,0
2018-10-07T04:53:54.157Z,0
2018-10-07T04:55:04.304Z,0
2018-10-07T04:56:14.179Z,0
2018-10-07T04:57:24.305Z,0
2018-10-07T04:58:34.430Z,4
2018-10-07T04:59:44.589Z,4
2018-10-07T05:00:54.705Z,0
2018-10-07T05:02:04.480Z,4
2018-10-07T05:03:14.437Z,4
2018-10-07T05:04:24.603Z,4
2018-10-07T05:05:34.771Z,4
2018-10-07T05:06:44.914Z,4
2018-10-07T05:07:55.047Z,4
2018-10-07T05:09:04.650Z,8
2018-10-07T05:10:14.807Z,8
2018-10-07T05:11:25.151Z,12
2018-10-07T05:12:35.633Z,12
2018-10-07T05:13:45.867Z,12
2018-10-07T05:14:55.983Z,16
2018-10-07T05:16:06.186Z,28
2018-10-07T05:17:16.415Z,32
2018-10-07T05:18:26.309Z,28
2018-10-07T05:19:36.460Z,28
2018-10-07T05:20:46.676Z,28
2018-10-07T05:21:56.864Z,28
2018-10-07T05:23:07.009Z,28
2018-10-07T05:24:17.205Z,36
2018-10-07T05:25:27.358Z,44
2018-10-07T05:26:37.552Z,48
2018-10-07T05:27:47.826Z,48
2018-10-07T05:28:58.036Z,48
2018-10-07T05:30:08.240Z,44
2018-10-07T05:31:18.030Z,44
2018-10-07T05:32:28.276Z,48
2018-10-07T05:33:39.098Z,52
2018-10-07T05:34:49.286Z,52
2018-10-07T05:35:59.494Z,52
2018-10-07T05:37:09.733Z,56
2018-10-07T05:38:19.943Z,56
2018-10-07T05:39:30.088Z,64
2018-10-07T05:40:40.266Z,72
2018-10-07T05:41:50.407Z,88
2018-10-07T05:43:00.604Z,104
2018-10-07T05:44:10.857Z,112
2018-10-07T05:45:21.319Z,116
2018-10-07T05:46:31.206Z,112
2018-10-07T05:47:41.365Z,100
2018-10-07T05:48:51.522Z,100
2018-10-07T05:50:01.672Z,92
2018-10-07T05:51:11.813Z,84
2018-10-07T05:52:22.017Z,76
2018-10-07T05:53:32.021Z,68
2018-10-07T05:54:42.178Z,80
2018-10-07T05:55:52.746Z,100
2018-10-07T05:57:02.996Z,88
2018-10-07T05:58:12.934Z,112
2018-10-07T05:59:24.036Z,88
2018-10-07T06:00:33.907Z,84
2018-10-07T06:01:44.288Z,88
2018-10-07T06:02:54.692Z,96
2018-10-07T06:04:04.826Z,92
2018-10-07T06:05:14.440Z,88
2018-10-07T06:06:24.735Z,88
2018-10-07T06:07:34.595Z,84
2018-10-07T06:08:44.731Z,88
2018-10-07T06:09:54.869Z,88
2018-10-07T06:11:04.768Z,104
2018-10-07T06:12:14.889Z,112
2018-10-07T06:13:25.085Z,140
2018-10-07T06:14:35.263Z,148
2018-10-07T06:15:45.301Z,176
2018-10-07T06:16:55.479Z,168
2018-10-07T06:18:05.632Z,160
2018-10-07T06:19:15.518Z,228
2018-10-07T06:20:25.313Z,288
2018-10-07T06:21:35.764Z,360
2018-10-07T06:22:46.082Z,440
2018-10-07T06:23:56.198Z,532
2018-10-07T06:25:06.339Z,352
2018-10-07T06:26:16.569Z,320
2018-10-07T06:27:26.762Z,348
2018-10-07T06:28:37.077Z,368
2018-10-07T06:29:47.444Z,348
2018-10-07T06:30:57.736Z,376
2018-10-07T06:32:07.858Z,400
2018-10-07T06:33:17.569Z,516
2018-10-07T06:34:27.704Z,584
2018-10-07T06:35:37.602Z,528
2018-10-07T06:36:47.722Z,328
2018-10-07T06:37:57.611Z,304
2018-10-07T06:39:07.730Z,252
2018-10-07T06:40:17.672Z,272
2018-10-07T06:41:27.867Z,304
2018-10-07T06:42:38.173Z,328
2018-10-07T06:43:48.377Z,368
2018-10-07T06:44:58.175Z,508
2018-10-07T06:46:09.393Z,488
2018-10-07T06:47:19.644Z,428
2018-10-07T06:48:29.805Z,424
2018-10-07T06:49:40.012Z,396
2018-10-07T06:50:50.277Z,440
2018-10-07T06:52:00.656Z,516
2018-10-07T06:53:10.570Z,444
2018-10-07T06:54:21.660Z,436
2018-10-07T06:55:32.012Z,472
2018-10-07T06:56:42.185Z,436
2018-10-07T06:57:52.296Z,464
2018-10-07T06:59:03.412Z,492
2018-10-07T07:00:13.562Z,524
2018-10-07T07:01:23.771Z,496
2018-10-07T07:02:33.937Z,448
2018-10-07T07:03:44.108Z,388
2018-10-07T07:04:54.327Z,344
2018-10-07T07:06:04.240Z,300
2018-10-07T07:07:14.407Z,300
2018-10-07T07:08:24.573Z,308
2018-10-07T07:09:34.799Z,320
2018-10-07T07:10:45.112Z,328
2018-10-07T07:11:55.276Z,384
2018-10-07T07:13:05.744Z,436
2018-10-07T07:14:16.111Z,496
2018-10-07T07:15:26.280Z,548
2018-10-07T07:16:36.188Z,636
2018-10-07T07:17:46.367Z,696
2018-10-07T07:18:56.560Z,656
2018-10-07T07:20:06.648Z,624
2018-10-07T07:21:16.863Z,784
2018-10-07T07:22:27.989Z,936
2018-10-07T07:23:37.971Z,996
2018-10-07T07:24:48.167Z,992
2018-10-07T07:25:58.429Z,964
2018-10-07T07:27:08.588Z,924
2018-10-07T07:28:18.479Z,908
2018-10-07T07:29:28.623Z,876
2018-10-07T07:30:38.847Z,876
2018-10-07T07:31:49.067Z,900
2018-10-07T07:32:59.226Z,964
2018-10-07T07:34:09.464Z,1040
2018-10-07T07:35:19.308Z,1132
2018-10-07T07:36:29.477Z,1228
2018-10-07T07:37:39.743Z,1256
2018-10-07T07:38:49.893Z,1220
2018-10-07T07:40:01.008Z,1300
2018-10-07T07:41:11.181Z,1388
2018-10-07T07:42:21.519Z,1496
2018-10-07T07:43:31.810Z,2040
2018-10-07T07:44:42.048Z,2876
2018-10-07T07:45:52.168Z,3464
2018-10-07T07:47:02.427Z,4088
2018-10-07T07:48:12.607Z,5012
2018-10-07T07:49:23.077Z,4980
2018-10-07T07:50:33.245Z,4192
2018-10-07T07:51:43.016Z,3588
2018-10-07T07:52:53.200Z,3384
2018-10-07T07:54:03.342Z,3236
2018-10-07T07:55:13.188Z,3156
2018-10-07T07:56:23.412Z,2804
2018-10-07T07:57:33.301Z,2628
2018-10-07T07:58:43.527Z,3900
2018-10-07T07:59:53.687Z,3796
2018-10-07T08:01:03.861Z,2492
2018-10-07T08:02:14.006Z,2184
2018-10-07T08:03:24.149Z,2148
2018-10-07T08:04:34.393Z,2056
2018-10-07T08:05:44.610Z,1936
2018-10-07T08:06:54.527Z,2068
2018-10-07T08:08:04.671Z,1904
2018-10-07T08:09:14.807Z,1992
2018-10-07T08:10:24.967Z,1896
2018-10-07T08:11:35.109Z,1980
2018-10-07T08:12:45.271Z,1956
2018-10-07T08:13:55.162Z,1792
2018-10-07T08:15:05.362Z,1816
2018-10-07T08:16:15.503Z,1772
2018-10-07T08:17:25.878Z,2120
2018-10-07T08:18:36.374Z,2008
2018-10-07T08:19:46.636Z,1992
2018-10-07T08:20:56.779Z,1960
2018-10-07T08:22:06.959Z,2072
2018-10-07T08:23:17.238Z,2004
2018-10-07T08:24:28.158Z,1980
2018-10-07T08:25:38.404Z,1864
2018-10-07T08:26:48.538Z,2236
2018-10-07T08:27:58.421Z,2896
2018-10-07T08:29:08.556Z,3532
2018-10-07T08:30:18.707Z,3392
2018-10-07T08:31:28.900Z,3892
2018-10-07T08:32:38.530Z,4976
2018-10-07T08:33:48.776Z,5096
2018-10-07T08:34:59.097Z,4680
2018-10-07T08:36:09.334Z,5872
2018-10-07T08:37:19.513Z,4772
2018-10-07T08:38:29.737Z,4060
2018-10-07T08:39:39.532Z,4048
2018-10-07T08:40:49.407Z,4860
2018-10-07T08:42:00.527Z,4952
2018-10-07T08:43:10.682Z,5304
2018-10-07T08:44:20.882Z,5344
2018-10-07T08:45:31.080Z,4780
2018-10-07T08:46:41.260Z,5860
2018-10-07T08:47:51.502Z,6264
2018-10-07T08:49:01.744Z,7048
2018-10-07T08:50:11.943Z,6708
2018-10-07T08:51:22.167Z,7060
2018-10-07T08:52:32.332Z,5796
2018-10-07T08:53:42.556Z,4624
2018-10-07T08:54:52.756Z,4380
2018-10-07T08:56:03.341Z,4308
2018-10-07T08:57:13.806Z,4008
2018-10-07T08:58:25.029Z,4436
2018-10-07T08:59:35.230Z,3788
2018-10-07T09:00:45.430Z,3572
2018-10-07T09:01:55.400Z,3304
2018-10-07T09:03:05.590Z,3084
2018-10-07T09:04:15.747Z,2944
2018-10-07T09:05:25.894Z,3460
2018-10-07T09:06:35.693Z,3624
2018-10-07T09:07:45.959Z,4144
2018-10-07T09:08:56.742Z,4144
2018-10-07T09:10:07.176Z,4448
2018-10-07T09:11:17.375Z,3976
2018-10-07T09:12:27.581Z,3724
2018-10-07T09:13:37.818Z,4420
2018-10-07T09:14:48.410Z,4572
2018-10-07T09:15:58.581Z,4828
2018-10-07T09:17:08.758Z,4476
2018-10-07T09:18:19.089Z,4360
2018-10-07T09:19:29.478Z,4512
2018-10-07T09:20:39.447Z,4704
2018-10-07T09:21:49.619Z,4036
2018-10-07T09:22:59.544Z,3692
2018-10-07T09:24:09.698Z,3356
2018-10-07T09:25:19.870Z,3004
2018-10-07T09:26:30.024Z,2952
2018-10-07T09:27:40.637Z,2956
2018-10-07T09:28:51.479Z,2636
2018-10-07T09:30:01.633Z,2320
2018-10-07T09:31:11.814Z,2184
2018-10-07T09:32:22.099Z,2276
2018-10-07T09:33:32.603Z,2376
2018-10-07T09:34:42.539Z,2524
2018-10-07T09:35:52.464Z,2872
2018-10-07T09:37:02.776Z,3008
2018-10-07T09:38:12.965Z,2388
2018-10-07T09:39:23.582Z,3376
2018-10-07T09:40:33.851Z,5084
2018-10-07T09:41:44.279Z,5124
2018-10-07T09:42:54.492Z,5288
2018-10-07T09:44:04.652Z,5304
2018-10-07T09:45:14.806Z,5640
2018-10-07T09:46:25.001Z,6200
2018-10-07T09:47:35.273Z,6276
2018-10-07T09:48:45.459Z,5972
2018-10-07T09:49:55.833Z,6028
2018-10-07T09:51:06.041Z,5804
2018-10-07T09:52:16.510Z,5960
2018-10-07T09:53:26.934Z,6120
2018-10-07T09:54:37.128Z,4632
2018-10-07T09:55:47.441Z,3840
2018-10-07T09:56:57.679Z,4092
2018-10-07T09:58:08.592Z,4916
2018-10-07T09:59:18.950Z,4592
2018-10-07T10:00:29.276Z,4380
2018-10-07T10:01:39.508Z,5264
2018-10-07T10:02:49.738Z,4968
2018-10-07T10:04:00.046Z,4100
2018-10-07T10:05:10.364Z,4044
2018-10-07T10:06:20.735Z,4844
2018-10-07T10:07:30.942Z,5048
2018-10-07T10:08:41.273Z,5340
2018-10-07T10:09:51.456Z,5436
2018-10-07T10:11:01.881Z,5264
2018-10-07T10:12:12.281Z,5308
2018-10-07T10:13:23.089Z,5864
2018-10-07T10:14:33.267Z,6028
2018-10-07T10:15:43.126Z,5732
2018-10-07T10:16:53.374Z,4612
2018-10-07T10:18:03.596Z,3604
2018-10-07T10:19:13.865Z,3112
2018-10-07T10:20:24.061Z,2812
2018-10-07T10:21:34.334Z,2940
2018-10-07T10:22:45.486Z,2808
2018-10-07T10:23:56.671Z,4916
2018-10-07T10:25:06.943Z,5316
2018-10-07T10:26:16.754Z,5516
2018-10-07T10:27:26.749Z,5024
2018-10-07T10:28:37.010Z,4632
2018-10-07T10:29:46.993Z,4780
2018-10-07T10:30:57.193Z,4596
2018-10-07T10:32:07.647Z,4392
2018-10-07T10:33:17.837Z,4488
2018-10-07T10:34:27.748Z,4372
2018-10-07T10:35:37.921Z,4216
2018-10-07T10:36:48.287Z,4180
2018-10-07T10:37:58.254Z,4296
2018-10-07T10:39:08.459Z,4604
2018-10-07T10:40:18.718Z,5060
2018-10-07T10:41:28.961Z,5756
2018-10-07T10:42:39.158Z,5860
2018-10-07T10:43:49.479Z,6028
2018-10-07T10:44:59.671Z,6080
2018-10-07T10:46:09.920Z,6276
2018-10-07T10:47:19.743Z,6532
2018-10-07T10:48:29.939Z,6328
2018-10-07T10:49:40.118Z,6612
2018-10-07T10:50:50.286Z,6664
2018-10-07T10:52:00.225Z,6524
2018-10-07T10:53:10.442Z,7220
2018-10-07T10:54:20.671Z,10116
2018-10-07T10:55:31.018Z,11876
2018-10-07T10:56:40.976Z,12076
2018-10-07T10:57:50.993Z,13712
2018-10-07T10:59:01.290Z,43232
2018-10-07T11:00:11.547Z,63424
2018-10-07T11:01:21.878Z,18176
2018-10-07T11:02:32.510Z,19296
2018-10-07T11:03:42.754Z,17984
2018-10-07T11:04:52.987Z,14336
2018-10-07T11:06:03.180Z,15904
2018-10-07T11:07:13.368Z,15968
2018-10-07T11:08:23.572Z,14752
2018-10-07T11:09:33.797Z,12616
2018-10-07T11:10:43.573Z,13844
2018-10-07T11:11:53.879Z,11808
2018-10-07T11:13:04.046Z,9688
2018-10-07T11:14:14.248Z,9348
2018-10-07T11:15:24.597Z,9116
2018-10-07T11:16:35.096Z,9592
2018-10-07T11:17:45.320Z,10372
2018-10-07T11:18:55.573Z,13020
2018-10-07T11:20:05.759Z,12992
2018-10-07T11:21:15.933Z,12880
2018-10-07T11:22:26.184Z,11784
2018-10-07T11:23:36.451Z,12604
2018-10-07T11:24:46.691Z,13832
2018-10-07T11:25:56.939Z,13000
2018-10-07T11:27:06.811Z,11928
2018-10-07T11:28:17.025Z,13708
2018-10-07T11:29:27.209Z,16000
2018-10-07T11:30:37.609Z,17408
2018-10-07T11:31:47.865Z,15424
2018-10-07T11:32:58.078Z,14208
2018-10-07T11:34:08.421Z,14464
2018-10-07T11:35:18.829Z,14848
2018-10-07T11:36:29.032Z,15296
2018-10-07T11:37:39.248Z,13636
2018-10-07T11:38:50.819Z,11204
2018-10-07T11:40:01.072Z,9656
2018-10-07T11:41:11.254Z,9692
2018-10-07T11:42:21.468Z,11660
2018-10-07T11:43:31.661Z,12892
2018-10-07T11:44:42.047Z,14528
2018-10-07T11:45:52.239Z,20000
2018-10-07T11:47:02.472Z,35296
2018-10-07T11:48:12.715Z,24192
2018-10-07T11:49:22.746Z,14400
2018-10-07T11:50:32.979Z,12284
2018-10-07T11:51:43.174Z,13320
2018-10-07T11:52:53.349Z,16032
2018-10-07T11:54:03.871Z,16320
2018-10-07T11:55:13.875Z,15296
2018-10-07T11:56:23.835Z,22688
2018-10-07T11:57:34.026Z,23104
2018-10-07T11:58:44.231Z,13432
2018-10-07T11:59:54.893Z,38560
2018-10-07T12:01:05.216Z,15136
2018-10-07T12:02:15.847Z,24288
2018-10-07T12:03:26.354Z,18912
2018-10-07T12:04:36.612Z,21984
2018-10-07T12:05:46.910Z,58112
2018-10-07T12:06:57.413Z,64416
2018-10-07T12:08:07.643Z,50944
2018-10-07T12:09:17.924Z,13856
2018-10-07T12:10:28.438Z,11128
2018-10-07T12:11:38.679Z,9436
2018-10-07T12:12:48.918Z,10644
2018-10-07T12:13:58.901Z,18016
2018-10-07T12:15:09.167Z,46144
2018-10-07T12:16:19.516Z,13124
2018-10-07T12:17:29.859Z,51584
2018-10-07T12:18:40.089Z,53504
2018-10-07T12:19:50.294Z,24640
2018-10-07T12:21:00.639Z,18656
2018-10-07T12:22:10.947Z,56736
2018-10-07T12:23:21.255Z,16064
2018-10-07T12:24:31.482Z,12688
2018-10-07T12:25:41.690Z,11780
2018-10-07T12:26:51.976Z,11056
2018-10-07T12:28:02.183Z,9708
2018-10-07T12:29:12.852Z,9008
2018-10-07T12:30:22.770Z,8352
2018-10-07T12:31:33.029Z,8184
2018-10-07T12:32:42.989Z,8720
2018-10-07T12:33:53.412Z,9544
2018-10-07T12:35:03.613Z,10496
2018-10-07T12:36:13.611Z,11784
2018-10-07T12:37:23.988Z,11756
2018-10-07T12:38:34.198Z,11268
2018-10-07T12:39:44.416Z,10908
2018-10-07T12:40:54.626Z,11316
2018-10-07T12:42:04.594Z,12228
2018-10-07T12:43:15.892Z,12920
2018-10-07T12:44:26.113Z,11552
2018-10-07T12:45:36.392Z,10200
2018-10-07T12:46:46.661Z,8864
2018-10-07T12:47:56.955Z,9168
2018-10-07T12:49:07.175Z,9464
2018-10-07T12:50:17.380Z,9508
2018-10-07T12:51:27.475Z,9816
2018-10-07T12:52:37.419Z,38688
2018-10-07T12:53:47.640Z,8524
2018-10-07T12:54:57.888Z,7700
2018-10-07T12:56:08.121Z,6696
2018-10-07T12:57:18.387Z,6200
2018-10-07T12:58:28.578Z,6828
2018-10-07T12:59:38.522Z,8620
2018-10-07T13:00:48.739Z,11008
2018-10-07T13:01:59.078Z,13204
2018-10-07T13:03:09.301Z,15232
2018-10-07T13:04:19.243Z,19840
2018-10-07T13:05:29.420Z,43136
2018-10-07T13:06:39.644Z,46720
2018-10-07T13:07:49.864Z,48640
2018-10-07T13:09:00.047Z,33792
2018-10-07T13:10:10.211Z,49984
2018-10-07T13:11:20.430Z,49376
2018-10-07T13:12:30.676Z,32672
2018-10-07T13:13:41.261Z,49472
2018-10-07T13:14:51.682Z,48608
2018-10-07T13:16:05.157Z,34592
2018-10-07T13:17:16.737Z,16608
2018-10-07T13:18:26.972Z,44288
2018-10-07T13:19:37.821Z,45088
2018-10-07T13:20:49.991Z,48096
2018-10-07T13:22:00.215Z,45824
2018-10-07T13:23:10.383Z,45664
2018-10-07T13:24:20.680Z,48128
2018-10-07T13:25:30.878Z,47200
2018-10-07T13:26:41.249Z,36768
2018-10-07T13:27:51.527Z,44192
2018-10-07T13:29:01.859Z,42464
2018-10-07T13:30:13.239Z,40576
2018-10-07T13:31:23.469Z,39936
2018-10-07T13:32:34.101Z,39072
2018-10-07T13:33:44.872Z,37120
2018-10-07T13:34:55.298Z,36800
2018-10-07T13:36:06.638Z,37344
2018-10-07T13:37:17.718Z,36704
2018-10-07T13:38:28.203Z,36160
2018-10-07T13:39:38.386Z,36512
2018-10-07T13:40:48.438Z,37024
2018-10-07T13:41:58.857Z,36128
2018-10-07T13:43:09.040Z,35264
2018-10-07T13:44:22.291Z,35136
2018-10-07T13:45:35.273Z,35328
2018-10-07T13:49:18.906Z,34912
2018-10-07T13:50:34.988Z,35520
2018-10-07T13:51:45.582Z,34720
2018-10-07T13:52:55.794Z,35616
2018-10-07T13:54:06.085Z,35680
2018-10-07T13:55:16.283Z,36576
2018-10-07T13:56:26.537Z,36992
2018-10-07T13:57:37.030Z,36288
2018-10-07T13:58:47.264Z,36256
2018-10-07T13:59:57.534Z,35360
2018-10-07T14:01:07.975Z,34592
2018-10-07T14:02:18.279Z,32160
2018-10-07T14:03:28.690Z,30880
2018-10-07T14:04:39.004Z,30464
2018-10-07T14:05:49.209Z,30656
2018-10-07T14:06:59.434Z,30464
2018-10-07T14:08:09.664Z,30240
2018-10-07T14:09:19.871Z,30432
2018-10-07T14:10:29.856Z,30400
2018-10-07T14:11:40.186Z,30336
2018-10-07T14:12:50.153Z,30624
2018-10-07T14:14:00.373Z,30816
2018-10-07T14:15:10.619Z,29824
2018-10-07T14:16:21.086Z,31200
2018-10-07T14:17:31.417Z,30784
2018-10-07T14:18:41.647Z,30464
2018-10-07T14:19:51.913Z,19264
2018-10-07T14:21:02.166Z,30304
2018-10-07T14:22:12.416Z,28736
2018-10-07T14:23:22.636Z,10752
2018-10-07T14:24:32.839Z,6884
2018-10-07T14:25:44.034Z,21344
2018-10-07T14:26:54.338Z,17600
2018-10-07T14:28:04.656Z,17856
2018-10-07T14:29:16.042Z,3580
2018-10-07T14:30:26.273Z,3336
2018-10-07T14:31:36.458Z,5092
2018-10-07T14:32:46.846Z,13440
2018-10-07T14:33:57.044Z,23904
2018-10-07T14:35:07.280Z,23616
2018-10-07T14:36:17.657Z,23520
2018-10-07T14:37:27.318Z,23136
2018-10-07T14:38:37.631Z,22816
2018-10-07T14:39:47.892Z,22368
2018-10-07T14:40:58.146Z,22208
2018-10-07T14:42:08.966Z,22112
2018-10-07T14:43:19.203Z,21344
2018-10-07T14:44:29.429Z,21280
2018-10-07T14:45:39.675Z,15008
2018-10-07T14:46:49.885Z,3936
2018-10-07T14:48:00.118Z,3628
2018-10-07T14:49:10.492Z,3948
2018-10-07T14:50:20.881Z,6468
2018-10-07T14:51:30.856Z,4552
2018-10-07T14:52:41.325Z,13600
2018-10-07T14:53:51.602Z,17152
2018-10-07T14:55:02.049Z,18112
2018-10-07T14:56:12.419Z,7536
2018-10-07T14:57:25.665Z,18304
2018-10-07T14:58:38.381Z,17440
2018-10-07T14:59:48.563Z,17504
2018-10-07T15:00:58.951Z,16640
2018-10-07T15:02:09.235Z,13600
2018-10-07T15:03:19.709Z,10876
2018-10-07T15:04:29.983Z,8156
2018-10-07T15:05:40.240Z,5620
2018-10-07T15:06:50.473Z,7100
2018-10-07T15:08:00.709Z,9500
2018-10-07T15:09:10.741Z,7424
2018-10-07T15:10:21.147Z,9968
2018-10-07T15:11:31.389Z,12448
2018-10-07T15:12:41.567Z,11744
2018-10-07T15:13:51.796Z,9500
2018-10-07T15:15:02.035Z,10388
2018-10-07T15:16:12.273Z,9560
2018-10-07T15:17:22.537Z,8868
2018-10-07T15:18:32.777Z,11264
2018-10-07T15:19:42.999Z,11968
2018-10-07T15:20:53.016Z,11424
2018-10-07T15:22:03.302Z,8956
2018-10-07T15:23:13.536Z,10832
2018-10-07T15:24:23.806Z,10448
2018-10-07T15:25:34.000Z,10444
2018-10-07T15:26:44.276Z,8592
2018-10-07T15:27:54.516Z,6608
2018-10-07T15:29:04.745Z,3924
2018-10-07T15:30:14.945Z,2564
2018-10-07T15:31:25.184Z,2528
2018-10-07T15:32:35.462Z,2508
2018-10-07T15:33:45.704Z,2856
2018-10-07T15:34:55.923Z,2500
2018-10-07T15:36:06.234Z,2388
2018-10-07T15:37:16.472Z,2148
2018-10-07T15:38:26.855Z,1976
2018-10-07T15:39:37.169Z,1828
2018-10-07T15:40:47.778Z,1760
2018-10-07T15:41:58.002Z,1756
2018-10-07T15:43:08.337Z,1728
2018-10-07T15:44:18.625Z,1696
2018-10-07T15:45:28.899Z,1676
2018-10-07T15:46:39.219Z,1640
2018-10-07T15:47:50.029Z,1620
2018-10-07T15:49:00.290Z,1596
2018-10-07T15:50:10.631Z,1540
2018-10-07T15:51:20.995Z,1472
2018-10-07T15:52:31.460Z,1356
2018-10-07T15:53:41.891Z,1256
2018-10-07T15:54:52.350Z,1176
2018-10-07T15:56:02.591Z,1128
2018-10-07T15:57:12.846Z,1108
2018-10-07T15:59:03.106Z,1036
2018-10-07T16:02:14.843Z,904
2018-10-07T16:06:09.889Z,764
